sensor_id;sensor_type;location;lat;lon;timestamp;pressure;altitude;pressure_sealevel;temperature;humidity
6938;BME280;40040;42.706;23.372;2023-12-04T00:01:15;144278.16;;;0.35;100.00
6938;BME280;40040;42.706;23.372;2023-12-04T00:03:42;144318.50;;;0.51;100.00
6938;BME280;40040;42.706;23.372;2023-12-04T00:06:11;144331.97;;;0.57;100.00
6938;BME280;40040;42.706;23.372;2023-12-04T00:08:39;144351.53;;;0.65;100.00
6938;BME280;40040;42.706;23.372;2023-12-04T00:11:06;144324.63;;;0.54;100.00
6938;BME280;40040;42.706;23.372;2023-12-04T00:13:33;144345.44;;;0.62;100.00
6938;BME280;40040;42.706;23.372;2023-12-04T00:16:00;144341.75;;;0.61;100.00
6938;BME280;40040;42.706;23.372;2023-12-04T00:18:27;144344.19;;;0.62;100.00
6938;BME280;40040;42.706;23.372;2023-12-04T00:20:54;144291.56;;;0.40;100.00
6938;BME280;40040;42.706;23.372;2023-12-04T00:23:22;144339.28;;;0.60;100.00
6938;BME280;40040;42.706;23.372;2023-12-04T00:25:49;144351.53;;;0.65;100.00
6938;BME280;40040;42.706;23.372;2023-12-04T00:28:15;144363.75;;;0.70;100.00
6938;BME280;40040;42.706;23.372;2023-12-04T00:30:42;144319.72;;;0.52;100.00
6938;BME280;40040;42.706;23.372;2023-12-04T00:33:09;144374.78;;;0.74;100.00
6938;BME280;40040;42.706;23.372;2023-12-04T00:35:36;144376.03;;;0.75;100.00
6938;BME280;40040;42.706;23.372;2023-12-04T00:38:03;144354.00;;;0.66;100.00
6938;BME280;40040;42.706;23.372;2023-12-04T00:40:31;144399.25;;;0.84;100.00
6938;BME280;40040;42.706;23.372;2023-12-04T00:42:58;144428.63;;;0.96;100.00
6938;BME280;40040;42.706;23.372;2023-12-04T00:45:25;144406.59;;;0.87;100.00
6938;BME280;40040;42.706;23.372;2023-12-04T00:47:51;144410.28;;;0.89;100.00
6938;BME280;40040;42.706;23.372;2023-12-04T00:50:18;144376.03;;;0.75;100.00
6938;BME280;40040;42.706;23.372;2023-12-04T00:52:45;144421.28;;;0.93;100.00
6938;BME280;40040;42.706;23.372;2023-12-04T00:55:12;144427.38;;;0.96;100.00
6938;BME280;40040;42.706;23.372;2023-12-04T00:57:40;144344.19;;;0.62;100.00
6938;BME280;40040;42.706;23.372;2023-12-04T01:00:09;144367.47;;;0.71;100.00
6938;BME280;40040;42.706;23.372;2023-12-04T01:02:36;144405.41;;;0.87;100.00
6938;BME280;40040;42.706;23.372;2023-12-04T01:05:03;144405.41;;;0.87;100.00
6938;BME280;40040;42.706;23.372;2023-12-04T01:07:30;144412.72;;;0.90;100.00
6938;BME280;40040;42.706;23.372;2023-12-04T01:09:57;144341.75;;;0.61;100.00
6938;BME280;40040;42.706;23.372;2023-12-04T01:12:25;144285.47;;;0.38;100.00
6938;BME280;40040;42.706;23.372;2023-12-04T01:14:53;144412.72;;;0.90;100.00
6938;BME280;40040;42.706;23.372;2023-12-04T01:17:20;144376.03;;;0.75;100.00
6938;BME280;40040;42.706;23.372;2023-12-04T01:19:47;144384.59;;;0.78;100.00
6938;BME280;40040;42.706;23.372;2023-12-04T01:22:13;144324.63;;;0.54;100.00
6938;BME280;40040;42.706;23.372;2023-12-04T01:24:40;144385.78;;;0.79;100.00
6938;BME280;40040;42.706;23.372;2023-12-04T01:27:07;144378.47;;;0.76;100.00
6938;BME280;40040;42.706;23.372;2023-12-04T01:29:35;144383.38;;;0.78;100.00
6938;BME280;40040;42.706;23.372;2023-12-04T01:32:04;144335.63;;;0.58;100.00
6938;BME280;40040;42.706;23.372;2023-12-04T01:34:31;144352.75;;;0.65;100.00
6938;BME280;40040;42.706;23.372;2023-12-04T01:36:58;144264.69;;;0.29;100.00
6938;BME280;40040;42.706;23.372;2023-12-04T01:39:25;144357.66;;;0.67;100.00
6938;BME280;40040;42.706;23.372;2023-12-04T01:41:52;144276.91;;;0.34;100.00
6938;BME280;40040;42.706;23.372;2023-12-04T01:44:19;144341.75;;;0.61;100.00
6938;BME280;40040;42.706;23.372;2023-12-04T01:46:47;144286.72;;;0.38;100.00
6938;BME280;40040;42.706;23.372;2023-12-04T01:49:15;144344.19;;;0.62;100.00
6938;BME280;40040;42.706;23.372;2023-12-04T01:51:43;144339.28;;;0.60;100.00
6938;BME280;40040;42.706;23.372;2023-12-04T01:54:10;144331.97;;;0.57;100.00
6938;BME280;40040;42.706;23.372;2023-12-04T01:56:37;144334.38;;;0.58;100.00
6938;BME280;40040;42.706;23.372;2023-12-04T01:59:04;144309.94;;;0.48;100.00
6938;BME280;40040;42.706;23.372;2023-12-04T02:01:31;144269.59;;;0.31;100.00
6938;BME280;40040;42.706;23.372;2023-12-04T02:03:59;144338.09;;;0.59;100.00
6938;BME280;40040;42.706;23.372;2023-12-04T02:06:28;144334.38;;;0.58;100.00
6938;BME280;40040;42.706;23.372;2023-12-04T02:08:56;144324.63;;;0.54;100.00
6938;BME280;40040;42.706;23.372;2023-12-04T02:11:23;144264.69;;;0.29;100.00
6938;BME280;40040;42.706;23.372;2023-12-04T02:13:50;144314.84;;;0.50;100.00
6938;BME280;40040;42.706;23.372;2023-12-04T02:16:18;144322.16;;;0.53;100.00
6938;BME280;40040;42.706;23.372;2023-12-04T02:18:46;144312.41;;;0.49;100.00
6938;BME280;40040;42.706;23.372;2023-12-04T02:21:13;144243.91;;;0.21;100.00
6938;BME280;40040;42.706;23.372;2023-12-04T02:23:42;144208.41;;;0.06;100.00
6938;BME280;40040;42.706;23.372;2023-12-04T02:26:13;144275.69;;;0.34;100.00
6938;BME280;40040;42.706;23.372;2023-12-04T02:28:45;144198.63;;;0.02;100.00
6938;BME280;40040;42.706;23.372;2023-12-04T02:31:16;144274.44;;;0.33;100.00
6938;BME280;40040;42.706;23.372;2023-12-04T02:33:45;144248.81;;;0.23;100.00
6938;BME280;40040;42.706;23.372;2023-12-04T02:36:13;144196.19;;;0.01;100.00
6938;BME280;40040;42.706;23.372;2023-12-04T02:38:41;144248.81;;;0.23;100.00
6938;BME280;40040;42.706;23.372;2023-12-04T02:41:09;144111.84;;;-0.34;100.00
6938;BME280;40040;42.706;23.372;2023-12-04T02:43:36;144250.00;;;0.23;100.00
6938;BME280;40040;42.706;23.372;2023-12-04T02:46:03;144236.53;;;0.18;100.00
6938;BME280;40040;42.706;23.372;2023-12-04T02:48:30;144264.69;;;0.29;100.00
6938;BME280;40040;42.706;23.372;2023-12-04T02:50:57;144231.69;;;0.16;100.00
6938;BME280;40040;42.706;23.372;2023-12-04T02:53:23;144191.28;;;-0.01;100.00
6938;BME280;40040;42.706;23.372;2023-12-04T02:55:50;144226.78;;;0.14;100.00
6938;BME280;40040;42.706;23.372;2023-12-04T02:58:18;144246.31;;;0.22;100.00
6938;BME280;40040;42.706;23.372;2023-12-04T03:00:45;144230.44;;;0.15;100.00
6938;BME280;40040;42.706;23.372;2023-12-04T03:03:12;144212.06;;;0.08;100.00
6938;BME280;40040;42.706;23.372;2023-12-04T03:05:39;144216.97;;;0.10;100.00
6938;BME280;40040;42.706;23.372;2023-12-04T03:08:06;144206.00;;;0.05;100.00
6938;BME280;40040;42.706;23.372;2023-12-04T03:10:32;144172.94;;;-0.09;100.00
6938;BME280;40040;42.706;23.372;2023-12-04T03:12:59;144179.06;;;-0.06;100.00
6938;BME280;40040;42.706;23.372;2023-12-04T03:15:27;144150.97;;;-0.18;100.00
6938;BME280;40040;42.706;23.372;2023-12-04T03:17:55;144150.97;;;-0.18;100.00
6938;BME280;40040;42.706;23.372;2023-12-04T03:20:22;144131.38;;;-0.26;100.00
6938;BME280;40040;42.706;23.372;2023-12-04T03:22:49;144142.41;;;-0.21;100.00
6938;BME280;40040;42.706;23.372;2023-12-04T03:25:16;144141.16;;;-0.22;100.00
6938;BME280;40040;42.706;23.372;2023-12-04T03:27:43;144116.72;;;-0.32;100.00
6938;BME280;40040;42.706;23.372;2023-12-04T03:30:10;144163.19;;;-0.13;100.00
6938;BME280;40040;42.706;23.372;2023-12-04T03:32:38;144159.53;;;-0.14;100.00
6938;BME280;40040;42.706;23.372;2023-12-04T03:35:06;144119.16;;;-0.31;100.00
6938;BME280;40040;42.706;23.372;2023-12-04T03:37:33;144050.69;;;-0.59;100.00
6938;BME280;40040;42.706;23.372;2023-12-04T03:39:59;144122.81;;;-0.29;100.00
6938;BME280;40040;42.706;23.372;2023-12-04T03:42:27;144126.47;;;-0.28;100.00
6938;BME280;40040;42.706;23.372;2023-12-04T03:44:53;144106.94;;;-0.36;100.00
6938;BME280;40040;42.706;23.372;2023-12-04T03:47:20;144084.94;;;-0.45;100.00
6938;BME280;40040;42.706;23.372;2023-12-04T03:49:50;144061.72;;;-0.54;100.00
6938;BME280;40040;42.706;23.372;2023-12-04T03:52:16;144093.47;;;-0.41;100.00
6938;BME280;40040;42.706;23.372;2023-12-04T03:54:43;144092.25;;;-0.42;100.00
6938;BME280;40040;42.706;23.372;2023-12-04T03:57:10;144127.72;;;-0.27;100.00
6938;BME280;40040;42.706;23.372;2023-12-04T03:59:37;144138.69;;;-0.23;100.00
6938;BME280;40040;42.706;23.372;2023-12-04T04:02:04;144109.38;;;-0.35;100.00
6938;BME280;40040;42.706;23.372;2023-12-04T04:04:31;144117.91;;;-0.31;100.00
6938;BME280;40040;42.706;23.372;2023-12-04T04:06:59;144155.81;;;-0.16;100.00
6938;BME280;40040;42.706;23.372;2023-12-04T04:09:26;144038.47;;;-0.64;100.00
6938;BME280;40040;42.706;23.372;2023-12-04T04:11:53;144072.72;;;-0.50;100.00
6938;BME280;40040;42.706;23.372;2023-12-04T04:14:20;144159.53;;;-0.14;100.00
6938;BME280;40040;42.706;23.372;2023-12-04T04:16:47;144163.19;;;-0.13;100.00
6938;BME280;40040;42.706;23.372;2023-12-04T04:19:13;144110.59;;;-0.34;100.00
6938;BME280;40040;42.706;23.372;2023-12-04T04:21:40;144146.06;;;-0.20;100.00
6938;BME280;40040;42.706;23.372;2023-12-04T04:24:07;144146.06;;;-0.20;100.00
6938;BME280;40040;42.706;23.372;2023-12-04T04:26:34;144131.38;;;-0.26;100.00
6938;BME280;40040;42.706;23.372;2023-12-04T04:29:01;144146.06;;;-0.20;100.00
6938;BME280;40040;42.706;23.372;2023-12-04T04:31:28;144077.59;;;-0.48;100.00
6938;BME280;40040;42.706;23.372;2023-12-04T04:33:55;144133.84;;;-0.25;100.00
6938;BME280;40040;42.706;23.372;2023-12-04T04:36:22;144099.63;;;-0.39;100.00
6938;BME280;40040;42.706;23.372;2023-12-04T04:38:49;144150.97;;;-0.18;100.00
6938;BME280;40040;42.706;23.372;2023-12-04T04:41:17;144092.25;;;-0.42;100.00
6938;BME280;40040;42.706;23.372;2023-12-04T04:43:44;144136.28;;;-0.24;100.00
6938;BME280;40040;42.706;23.372;2023-12-04T04:46:11;144136.28;;;-0.24;100.00
6938;BME280;40040;42.706;23.372;2023-12-04T04:48:37;144135.03;;;-0.24;100.00
6938;BME280;40040;42.706;23.372;2023-12-04T04:51:04;144142.41;;;-0.21;100.00
6938;BME280;40040;42.706;23.372;2023-12-04T04:53:31;144148.50;;;-0.19;100.00
6938;BME280;40040;42.706;23.372;2023-12-04T04:55:58;144026.25;;;-0.69;100.00
6938;BME280;40040;42.706;23.372;2023-12-04T04:58:27;144143.59;;;-0.21;100.00
6938;BME280;40040;42.706;23.372;2023-12-04T05:00:53;144127.72;;;-0.27;100.00
6938;BME280;40040;42.706;23.372;2023-12-04T05:03:20;144043.38;;;-0.62;100.00
6938;BME280;40040;42.706;23.372;2023-12-04T05:05:47;144136.28;;;-0.24;100.00
6938;BME280;40040;42.706;23.372;2023-12-04T05:08:14;144130.13;;;-0.26;100.00
6938;BME280;40040;42.706;23.372;2023-12-04T05:10:41;144149.72;;;-0.18;100.00
6938;BME280;40040;42.706;23.372;2023-12-04T05:13:08;144149.72;;;-0.18;100.00
6938;BME280;40040;42.706;23.372;2023-12-04T05:15:36;144150.97;;;-0.18;100.00
6938;BME280;40040;42.706;23.372;2023-12-04T05:18:03;144128.94;;;-0.27;100.00
6938;BME280;40040;42.706;23.372;2023-12-04T05:20:30;144126.47;;;-0.28;100.00
6938;BME280;40040;42.706;23.372;2023-12-04T05:22:57;144143.59;;;-0.21;100.00
6938;BME280;40040;42.706;23.372;2023-12-04T05:25:24;144165.63;;;-0.12;100.00
6938;BME280;40040;42.706;23.372;2023-12-04T05:27:50;144148.50;;;-0.19;100.00
6938;BME280;40040;42.706;23.372;2023-12-04T05:30:18;144141.16;;;-0.22;100.00
6938;BME280;40040;42.706;23.372;2023-12-04T05:32:46;144097.16;;;-0.40;100.00
6938;BME280;40040;42.706;23.372;2023-12-04T05:35:15;144148.50;;;-0.19;100.00
6938;BME280;40040;42.706;23.372;2023-12-04T05:37:42;144088.59;;;-0.43;100.00
6938;BME280;40040;42.706;23.372;2023-12-04T05:40:09;144168.09;;;-0.11;100.00
6938;BME280;40040;42.706;23.372;2023-12-04T05:42:36;144106.94;;;-0.36;100.00
6938;BME280;40040;42.706;23.372;2023-12-04T05:45:04;144100.81;;;-0.38;100.00
6938;BME280;40040;42.706;23.372;2023-12-04T05:47:31;144152.16;;;-0.17;100.00
6938;BME280;40040;42.706;23.372;2023-12-04T05:49:59;144165.63;;;-0.12;100.00
6938;BME280;40040;42.706;23.372;2023-12-04T05:52:26;144114.25;;;-0.33;100.00
6938;BME280;40040;42.706;23.372;2023-12-04T05:54:52;144158.28;;;-0.15;100.00
6938;BME280;40040;42.706;23.372;2023-12-04T05:57:19;144165.63;;;-0.12;100.00
6938;BME280;40040;42.706;23.372;2023-12-04T05:59:46;144149.72;;;-0.18;100.00
6938;BME280;40040;42.706;23.372;2023-12-04T06:02:13;144137.50;;;-0.23;100.00
6938;BME280;40040;42.706;23.372;2023-12-04T06:04:41;144149.72;;;-0.18;100.00
6938;BME280;40040;42.706;23.372;2023-12-04T06:07:09;144141.16;;;-0.22;100.00
6938;BME280;40040;42.706;23.372;2023-12-04T06:09:36;144095.94;;;-0.40;100.00
6938;BME280;40040;42.706;23.372;2023-12-04T06:12:03;144159.53;;;-0.14;100.00
6938;BME280;40040;42.706;23.372;2023-12-04T06:14:33;144103.28;;;-0.37;100.00
6938;BME280;40040;42.706;23.372;2023-12-04T06:17:00;144181.50;;;-0.05;100.00
6938;BME280;40040;42.706;23.372;2023-12-04T06:19:27;144188.88;;;-0.02;100.00
6938;BME280;40040;42.706;23.372;2023-12-04T06:21:54;144048.28;;;-0.60;100.00
6938;BME280;40040;42.706;23.372;2023-12-04T06:24:24;144190.06;;;-0.02;100.00
6938;BME280;40040;42.706;23.372;2023-12-04T06:26:51;144182.75;;;-0.05;100.00
6938;BME280;40040;42.706;23.372;2023-12-04T06:29:18;144119.16;;;-0.31;100.00
6938;BME280;40040;42.706;23.372;2023-12-04T06:31:46;144177.84;;;-0.07;100.00
6938;BME280;40040;42.706;23.372;2023-12-04T06:34:13;144192.53;;;-0.01;100.00
6938;BME280;40040;42.706;23.372;2023-12-04T06:36:41;144130.13;;;-0.26;100.00
6938;BME280;40040;42.706;23.372;2023-12-04T06:39:10;144214.56;;;0.09;100.00
6938;BME280;40040;42.706;23.372;2023-12-04T06:41:39;144214.56;;;0.09;100.00
6938;BME280;40040;42.706;23.372;2023-12-04T06:44:07;144221.88;;;0.12;100.00
6938;BME280;40040;42.706;23.372;2023-12-04T06:46:37;144229.19;;;0.15;100.00
6938;BME280;40040;42.706;23.372;2023-12-04T06:49:05;144165.63;;;-0.12;100.00
6938;BME280;40040;42.706;23.372;2023-12-04T06:51:32;144253.66;;;0.25;100.00
6938;BME280;40040;42.706;23.372;2023-12-04T06:53:59;144273.25;;;0.33;100.00
6938;BME280;40040;42.706;23.372;2023-12-04T06:56:26;144280.59;;;0.36;100.00
6938;BME280;40040;42.706;23.372;2023-12-04T06:58:54;144275.69;;;0.34;100.00
6938;BME280;40040;42.706;23.372;2023-12-04T07:01:21;144297.72;;;0.43;100.00
6938;BME280;40040;42.706;23.372;2023-12-04T07:03:48;144174.16;;;-0.08;100.00
6938;BME280;40040;42.706;23.372;2023-12-04T07:06:15;144317.25;;;0.51;100.00
6938;BME280;40040;42.706;23.372;2023-12-04T07:08:42;144278.16;;;0.35;100.00
6938;BME280;40040;42.706;23.372;2023-12-04T07:11:09;144243.91;;;0.21;100.00
6938;BME280;40040;42.706;23.372;2023-12-04T07:13:35;144261.03;;;0.28;100.00
6938;BME280;40040;42.706;23.372;2023-12-04T07:16:05;144284.25;;;0.37;100.00
6938;BME280;40040;42.706;23.372;2023-12-04T07:18:32;144313.59;;;0.49;100.00
6938;BME280;40040;42.706;23.372;2023-12-04T07:20:58;144329.53;;;0.56;100.00
6938;BME280;40040;42.706;23.372;2023-12-04T07:23:25;144329.53;;;0.56;100.00
6938;BME280;40040;42.706;23.372;2023-12-04T07:25:52;144256.13;;;0.26;100.00
6938;BME280;40040;42.706;23.372;2023-12-04T07:28:19;144298.94;;;0.43;100.00
6938;BME280;40040;42.706;23.372;2023-12-04T07:30:46;144297.72;;;0.43;100.00
6938;BME280;40040;42.706;23.372;2023-12-04T07:33:14;144287.91;;;0.39;100.00
6938;BME280;40040;42.706;23.372;2023-12-04T07:35:40;144290.38;;;0.40;100.00
6938;BME280;40040;42.706;23.372;2023-12-04T07:38:07;144349.09;;;0.64;100.00
6938;BME280;40040;42.706;23.372;2023-12-04T07:40:34;144339.28;;;0.60;100.00
6938;BME280;40040;42.706;23.372;2023-12-04T07:43:01;144317.25;;;0.51;100.00
6938;BME280;40040;42.706;23.372;2023-12-04T07:45:28;144383.38;;;0.78;100.00
6938;BME280;40040;42.706;23.372;2023-12-04T07:47:55;144365.00;;;0.70;100.00
6938;BME280;40040;42.706;23.372;2023-12-04T07:50:22;144388.25;;;0.80;100.00
6938;BME280;40040;42.706;23.372;2023-12-04T07:52:51;144373.56;;;0.74;100.00
6938;BME280;40040;42.706;23.372;2023-12-04T07:55:18;144411.50;;;0.89;100.00
6938;BME280;40040;42.706;23.372;2023-12-04T07:57:44;144400.50;;;0.85;100.00
6938;BME280;40040;42.706;23.372;2023-12-04T08:00:12;144433.53;;;0.98;100.00
6938;BME280;40040;42.706;23.372;2023-12-04T08:02:39;144407.81;;;0.88;100.00
6938;BME280;40040;42.706;23.372;2023-12-04T08:05:06;144433.53;;;0.98;100.00
6938;BME280;40040;42.706;23.372;2023-12-04T08:07:34;144456.81;;;1.08;100.00
6938;BME280;40040;42.706;23.372;2023-12-04T08:10:01;144491.03;;;1.22;100.00
6938;BME280;40040;42.706;23.372;2023-12-04T08:12:28;144451.91;;;1.06;100.00
6938;BME280;40040;42.706;23.372;2023-12-04T08:14:55;144529.03;;;1.38;100.00
6938;BME280;40040;42.706;23.372;2023-12-04T08:17:21;144579.22;;;1.58;100.00
6938;BME280;40040;42.706;23.372;2023-12-04T08:19:48;144593.91;;;1.64;100.00
6938;BME280;40040;42.706;23.372;2023-12-04T08:22:15;144569.41;;;1.54;100.00
6938;BME280;40040;42.706;23.372;2023-12-04T08:24:43;144586.56;;;1.61;100.00
6938;BME280;40040;42.706;23.372;2023-12-04T08:27:10;144568.19;;;1.54;100.00
6938;BME280;40040;42.706;23.372;2023-12-04T08:29:39;144589.00;;;1.62;100.00
6938;BME280;40040;42.706;23.372;2023-12-04T08:32:06;144591.47;;;1.63;100.00
6938;BME280;40040;42.706;23.372;2023-12-04T08:34:33;144603.72;;;1.68;95.17
6938;BME280;40040;42.706;23.372;2023-12-04T08:36:59;144611.03;;;1.71;94.00
6938;BME280;40040;42.706;23.372;2023-12-04T08:39:26;144640.44;;;1.83;93.71
6938;BME280;40040;42.706;23.372;2023-12-04T08:41:54;144671.06;;;1.96;89.66
6938;BME280;40040;42.706;23.372;2023-12-04T08:44:21;144682.13;;;2.00;88.99
6938;BME280;40040;42.706;23.372;2023-12-04T08:46:49;144722.53;;;2.17;89.51
6938;BME280;40040;42.706;23.372;2023-12-04T08:49:16;144718.84;;;2.15;89.46
6938;BME280;40040;42.706;23.372;2023-12-04T08:51:43;144743.34;;;2.25;90.14
6938;BME280;40040;42.706;23.372;2023-12-04T08:54:10;144744.59;;;2.26;89.58
6938;BME280;40040;42.706;23.372;2023-12-04T08:56:36;144774.00;;;2.38;89.10
6938;BME280;40040;42.706;23.372;2023-12-04T08:59:04;144760.50;;;2.33;88.35
6938;BME280;40040;42.706;23.372;2023-12-04T09:01:31;144835.28;;;2.63;88.60
6938;BME280;40040;42.706;23.372;2023-12-04T09:03:58;144785.00;;;2.43;86.33
6938;BME280;40040;42.706;23.372;2023-12-04T09:06:25;144836.47;;;2.64;87.23
6938;BME280;40040;42.706;23.372;2023-12-04T09:08:52;144811.97;;;2.54;85.75
6938;BME280;40040;42.706;23.372;2023-12-04T09:11:19;144890.44;;;2.86;84.96
6938;BME280;40040;42.706;23.372;2023-12-04T09:13:48;144949.28;;;3.10;84.68
6938;BME280;40040;42.706;23.372;2023-12-04T09:16:16;144978.72;;;3.22;83.02
6938;BME280;40040;42.706;23.372;2023-12-04T09:18:43;145017.97;;;3.38;82.80
6938;BME280;40040;42.706;23.372;2023-12-04T09:21:10;145068.25;;;3.59;83.96
6938;BME280;40040;42.706;23.372;2023-12-04T09:23:36;145035.13;;;3.45;82.10
6938;BME280;40040;42.706;23.372;2023-12-04T09:26:04;145051.06;;;3.52;81.99
6938;BME280;40040;42.706;23.372;2023-12-04T09:28:30;145009.38;;;3.34;82.01
6938;BME280;40040;42.706;23.372;2023-12-04T09:30:57;145113.63;;;3.77;81.07
6938;BME280;40040;42.706;23.372;2023-12-04T09:33:25;145118.53;;;3.79;80.50
6938;BME280;40040;42.706;23.372;2023-12-04T09:35:52;145184.78;;;4.06;80.27
6938;BME280;40040;42.706;23.372;2023-12-04T09:38:19;145200.78;;;4.13;79.17
6938;BME280;40040;42.706;23.372;2023-12-04T09:40:46;145161.50;;;3.97;79.04
6938;BME280;40040;42.706;23.372;2023-12-04T09:43:13;145192.19;;;4.09;81.59
6938;BME280;40040;42.706;23.372;2023-12-04T09:45:40;145157.81;;;3.95;80.10
6938;BME280;40040;42.706;23.372;2023-12-04T09:48:08;145199.53;;;4.12;80.08
6938;BME280;40040;42.706;23.372;2023-12-04T09:50:37;145206.88;;;4.15;79.80
6938;BME280;40040;42.706;23.372;2023-12-04T09:53:05;145143.06;;;3.89;79.83
6938;BME280;40040;42.706;23.372;2023-12-04T09:55:33;145263.34;;;4.38;79.32
6938;BME280;40040;42.706;23.372;2023-12-04T09:58:00;145278.09;;;4.44;78.59
6938;BME280;40040;42.706;23.372;2023-12-04T10:00:31;145306.31;;;4.56;77.80
6938;BME280;40040;42.706;23.372;2023-12-04T10:02:58;145319.84;;;4.62;79.91
6938;BME280;40040;42.706;23.372;2023-12-04T10:05:26;145141.88;;;3.89;78.87
6938;BME280;40040;42.706;23.372;2023-12-04T10:07:54;145241.25;;;4.29;79.00
6938;BME280;40040;42.706;23.372;2023-12-04T10:10:21;145280.53;;;4.45;80.21
6938;BME280;40040;42.706;23.372;2023-12-04T10:12:48;145307.56;;;4.56;80.60
6938;BME280;40040;42.706;23.372;2023-12-04T10:15:14;145329.63;;;4.66;79.37
6938;BME280;40040;42.706;23.372;2023-12-04T10:17:42;145359.13;;;4.78;80.71
6938;BME280;40040;42.706;23.372;2023-12-04T10:20:10;145359.13;;;4.78;78.87
6938;BME280;40040;42.706;23.372;2023-12-04T10:22:53;145370.16;;;4.82;78.75
6938;BME280;40040;42.706;23.372;2023-12-04T10:25:21;145339.47;;;4.70;79.53
6938;BME280;40040;42.706;23.372;2023-12-04T10:27:49;145371.41;;;4.83;80.36
6938;BME280;40040;42.706;23.372;2023-12-04T10:30:26;145405.81;;;4.97;80.50
6938;BME280;40040;42.706;23.372;2023-12-04T10:32:54;145462.25;;;5.20;80.14
6938;BME280;40040;42.706;23.372;2023-12-04T10:35:21;145528.63;;;5.47;79.19
6938;BME280;40040;42.706;23.372;2023-12-04T10:37:49;145555.63;;;5.58;78.72
6938;BME280;40040;42.706;23.372;2023-12-04T10:40:24;145692.09;;;6.14;78.78
6938;BME280;40040;42.706;23.372;2023-12-04T10:43:16;145843.38;;;6.75;77.10
6938;BME280;40040;42.706;23.372;2023-12-04T10:45:44;145936.84;;;7.14;74.54
6938;BME280;40040;42.706;23.372;2023-12-04T10:48:12;145954.09;;;7.21;74.32
6938;BME280;40040;42.706;23.372;2023-12-04T10:50:41;145998.38;;;7.39;72.74
6938;BME280;40040;42.706;23.372;2023-12-04T10:53:09;146082.06;;;7.73;72.44
6938;BME280;40040;42.706;23.372;2023-12-04T10:55:38;146056.22;;;7.62;72.11
6938;BME280;40040;42.706;23.372;2023-12-04T10:58:06;146109.16;;;7.84;71.42
6938;BME280;40040;42.706;23.372;2023-12-04T11:00:35;146187.94;;;8.16;70.32
6938;BME280;40040;42.706;23.372;2023-12-04T11:03:04;146289.00;;;8.57;69.73
6938;BME280;40040;42.706;23.372;2023-12-04T11:05:37;146270.50;;;8.50;69.29
6938;BME280;40040;42.706;23.372;2023-12-04T11:08:06;146346.88;;;8.81;68.26
6938;BME280;40040;42.706;23.372;2023-12-04T11:10:39;146399.88;;;9.02;66.89
6938;BME280;40040;42.706;23.372;2023-12-04T11:13:19;146415.88;;;9.09;67.45
6938;BME280;40040;42.706;23.372;2023-12-04T11:15:48;146476.28;;;9.34;67.84
6938;BME280;40040;42.706;23.372;2023-12-04T11:18:21;146518.19;;;9.51;66.08
6938;BME280;40040;42.706;23.372;2023-12-04T11:20:52;146530.50;;;9.56;63.33
6938;BME280;40040;42.706;23.372;2023-12-04T11:23:22;146609.44;;;9.88;63.10
6938;BME280;40040;42.706;23.372;2023-12-04T11:25:51;146663.72;;;10.10;63.57
6938;BME280;40040;42.706;23.372;2023-12-04T11:28:20;146742.69;;;10.42;63.15
6938;BME280;40040;42.706;23.372;2023-12-04T11:30:47;146879.63;;;10.98;62.25
6938;BME280;40040;42.706;23.372;2023-12-04T11:33:15;146972.19;;;11.35;60.00
6938;BME280;40040;42.706;23.372;2023-12-04T11:35:42;147068.56;;;11.75;57.76
6938;BME280;40040;42.706;23.372;2023-12-04T11:38:08;147067.31;;;11.74;57.14
6938;BME280;40040;42.706;23.372;2023-12-04T11:40:41;147092.00;;;11.84;56.26
6938;BME280;40040;42.706;23.372;2023-12-04T11:43:24;147085.84;;;11.82;55.59
6938;BME280;40040;42.706;23.372;2023-12-04T11:45:51;147179.72;;;12.20;54.62
6938;BME280;40040;42.706;23.372;2023-12-04T11:48:22;147285.97;;;12.63;53.68
6938;BME280;40040;42.706;23.372;2023-12-04T11:50:50;147195.78;;;12.26;54.47
6938;BME280;40040;42.706;23.372;2023-12-04T11:53:17;147209.38;;;12.32;54.57
6938;BME280;40040;42.706;23.372;2023-12-04T11:55:46;147126.59;;;11.98;53.99
6938;BME280;40040;42.706;23.372;2023-12-04T11:58:13;147080.91;;;11.80;55.34
6938;BME280;40040;42.706;23.372;2023-12-04T12:00:41;147094.50;;;11.85;56.72
6938;BME280;40040;42.706;23.372;2023-12-04T12:03:09;147194.53;;;12.26;54.70
6938;BME280;40040;42.706;23.372;2023-12-04T12:05:37;147273.63;;;12.58;55.06
6938;BME280;40040;42.706;23.372;2023-12-04T12:08:07;147353.94;;;12.91;53.87
6938;BME280;40040;42.706;23.372;2023-12-04T12:10:34;147352.69;;;12.90;53.77
6938;BME280;40040;42.706;23.372;2023-12-04T12:13:04;147197.03;;;12.27;53.27
6938;BME280;40040;42.706;23.372;2023-12-04T12:15:32;147221.72;;;12.37;54.46
6938;BME280;40040;42.706;23.372;2023-12-04T12:18:00;147211.81;;;12.33;53.22
6938;BME280;40040;42.706;23.372;2023-12-04T12:20:27;147169.81;;;12.16;54.42
6938;BME280;40040;42.706;23.372;2023-12-04T12:22:54;147206.88;;;12.31;53.57
6938;BME280;40040;42.706;23.372;2023-12-04T12:25:21;147174.78;;;12.18;53.99
6938;BME280;40040;42.706;23.372;2023-12-04T12:27:50;147159.94;;;12.12;53.60
6938;BME280;40040;42.706;23.372;2023-12-04T12:30:17;147113.00;;;11.93;52.81
6938;BME280;40040;42.706;23.372;2023-12-04T12:32:44;147138.94;;;12.03;54.15
6938;BME280;40040;42.706;23.372;2023-12-04T12:35:12;147187.13;;;12.23;53.42
6938;BME280;40040;42.706;23.372;2023-12-04T12:37:39;147110.53;;;11.92;53.84
6938;BME280;40040;42.706;23.372;2023-12-04T12:40:07;147125.34;;;11.98;54.23
6938;BME280;40040;42.706;23.372;2023-12-04T12:42:36;147085.84;;;11.82;53.66
6938;BME280;40040;42.706;23.372;2023-12-04T12:45:05;146996.88;;;11.46;56.06
6938;BME280;40040;42.706;23.372;2023-12-04T12:47:32;146964.78;;;11.32;55.91
6938;BME280;40040;42.706;23.372;2023-12-04T12:50:00;146840.13;;;10.82;57.06
6938;BME280;40040;42.706;23.372;2023-12-04T12:52:29;146858.66;;;10.89;58.17